Hometown, Illinois
Current Conditions -  °F | °C
As of 3:53 PM on Friday 19 Dec 2014 (Local Time) from KMDW Reporting Station
Overcast Overcast  
Wind Chill: 29°   Ceiling: 2600
Heat Index: 33°   Visibility: 10mi
Dew Point: 23°   Wind: 5mph
Humidity: 66%   Direction: 230°SW
Pressure: 30.31"   Gusts: NA
Location:  41.73°N, 87.73°W
Report Text: KMDW 192153Z 23004KT 10SM OVC026 01/M05 A3031 RMK AO2 SLP275 T00061050
Loading
Personal Weather Stations






























Interactive Weather Map New forecast layout! Learn more

10-Day Weather Forecast

Advertisements
Track Severe Weather on mobile